Time;durP1;ratioP1;P1;durP2;ratioP2;P2;SDS_P1;SDS_P2;PMS_P1;PMS_P2;Temp;Humidity;BMP_temperature;BMP_pressure;BME280_temperature;BME280_humidity;BME280_pressure;Samples;Min_cycle;Max_cycle;Signal;HPM_P1;HPM_P2
2021/01/18 00:01:16;;;;;;;39.70;19.93;;;1.60;99.90;;;;;;5056776;28;20580;-80
2021/01/18 00:03:43;;;;;;;43.30;22.17;;;1.70;99.90;;;;;;5057614;28;20203;-80
2021/01/18 00:06:15;;;;;;;39.57;20.10;;;1.70;99.90;;;;;;5058055;28;20209;-80
2021/01/18 00:08:42;;;;;;;42.57;20.53;;;1.80;99.90;;;;;;5054262;28;20221;-80
2021/01/18 00:11:09;;;;;;;37.27;18.80;;;1.70;99.90;;;;;;5060718;28;20267;-78
2021/01/18 00:13:36;;;;;;;35.67;17.90;;;1.70;99.90;;;;;;5065528;28;20210;-78
2021/01/18 00:16:02;;;;;;;37.13;18.47;;;1.70;99.90;;;;;;5063294;28;20203;-78
2021/01/18 00:18:30;;;;;;;36.17;18.77;;;1.70;99.90;;;;;;5051966;28;20858;-79
2021/01/18 00:20:56;;;;;;;38.23;18.90;;;1.70;99.90;;;;;;5053430;28;20645;-78
2021/01/18 00:23:24;;;;;;;39.07;19.20;;;1.70;99.90;;;;;;5052286;28;20259;-78
2021/01/18 00:25:50;;;;;;;33.93;17.70;;;1.70;99.90;;;;;;5057388;28;20865;-78
2021/01/18 00:28:16;;;;;;;35.27;18.23;;;1.80;99.90;;;;;;5066432;28;20699;-78
2021/01/18 00:30:43;;;;;;;32.93;16.83;;;1.70;99.90;;;;;;5059401;28;20237;-78
2021/01/18 00:33:09;;;;;;;36.63;16.93;;;1.80;99.90;;;;;;5062329;28;20212;-78
2021/01/18 00:35:36;;;;;;;33.47;17.47;;;1.80;99.90;;;;;;5063038;28;20214;-78
2021/01/18 00:38:02;;;;;;;30.83;15.13;;;1.90;99.90;;;;;;5059306;28;20578;-78
2021/01/18 00:40:30;;;;;;;31.10;15.53;;;1.90;99.90;;;;;;5065220;28;20828;-78
2021/01/18 00:42:56;;;;;;;31.23;15.30;;;1.90;99.90;;;;;;5066411;28;20210;-78
2021/01/18 00:45:24;;;;;;;29.70;14.97;;;1.80;99.90;;;;;;5060141;28;20275;-78
2021/01/18 00:47:52;;;;;;;28.37;13.60;;;1.90;99.90;;;;;;5051876;28;20195;-78
2021/01/18 00:50:21;;;;;;;30.27;14.33;;;1.90;99.90;;;;;;5057267;28;20227;-78
2021/01/18 00:52:49;;;;;;;27.83;14.40;;;2.00;99.90;;;;;;5062830;28;20202;-78
2021/01/18 00:55:17;;;;;;;26.70;13.57;;;2.00;99.90;;;;;;5055499;28;20218;-78
2021/01/18 00:57:45;;;;;;;27.90;14.70;;;2.10;99.90;;;;;;5057703;28;20268;-78
2021/01/18 01:00:13;;;;;;;24.00;12.40;;;2.10;99.90;;;;;;5053929;28;20220;-78
2021/01/18 01:02:41;;;;;;;27.47;13.00;;;2.10;99.90;;;;;;5054219;28;20275;-78
2021/01/18 01:05:09;;;;;;;25.20;12.37;;;2.10;99.90;;;;;;5054447;28;20681;-78
2021/01/18 01:07:39;;;;;;;27.40;13.00;;;2.10;99.90;;;;;;5061587;28;20549;-78
2021/01/18 01:10:07;;;;;;;25.73;12.30;;;2.10;99.90;;;;;;5063934;28;20222;-78
2021/01/18 01:12:34;;;;;;;23.33;11.67;;;2.10;99.90;;;;;;5061353;28;20538;-79
2021/01/18 01:15:01;;;;;;;25.97;12.67;;;2.20;99.90;;;;;;5055595;28;20207;-78
2021/01/18 01:17:28;;;;;;;23.33;11.97;;;2.20;99.90;;;;;;5057704;28;20218;-78
2021/01/18 01:19:54;;;;;;;23.50;11.43;;;2.20;99.90;;;;;;5058839;28;20552;-78
2021/01/18 01:22:20;;;;;;;23.70;11.07;;;2.20;99.90;;;;;;5058103;28;20419;-78
2021/01/18 01:24:47;;;;;;;25.40;12.37;;;2.20;99.90;;;;;;5061246;28;20485;-78
2021/01/18 01:27:13;;;;;;;26.23;12.13;;;2.20;99.90;;;;;;5057356;28;20211;-78
2021/01/18 01:29:39;;;;;;;24.87;11.73;;;2.30;99.90;;;;;;5058922;28;20556;-78
2021/01/18 01:32:07;;;;;;;25.47;12.40;;;2.30;99.90;;;;;;5059103;28;20210;-78
2021/01/18 01:34:33;;;;;;;23.20;12.10;;;2.40;99.90;;;;;;5057923;28;20206;-78
2021/01/18 01:37:00;;;;;;;23.33;11.77;;;2.30;99.90;;;;;;5066649;28;20221;-78
2021/01/18 01:39:26;;;;;;;25.87;12.43;;;2.30;99.90;;;;;;5061441;28;20209;-78
2021/01/18 01:41:53;;;;;;;24.77;12.50;;;2.40;99.90;;;;;;5064553;28;20224;-78
2021/01/18 01:44:19;;;;;;;23.70;12.03;;;2.40;99.90;;;;;;5063015;28;20660;-79
2021/01/18 01:46:46;;;;;;;24.60;12.03;;;2.40;99.90;;;;;;5065525;28;20202;-78
2021/01/18 01:49:14;;;;;;;25.20;12.53;;;2.40;99.90;;;;;;5056950;28;20207;-79
2021/01/18 01:51:41;;;;;;;25.87;11.60;;;2.50;99.90;;;;;;5057245;28;20222;-78
2021/01/18 01:54:08;;;;;;;24.97;12.57;;;2.50;99.90;;;;;;5064004;28;20214;-78
2021/01/18 01:56:35;;;;;;;22.83;10.80;;;2.50;99.90;;;;;;5064731;28;20779;-80
2021/01/18 01:59:02;;;;;;;21.67;10.63;;;2.50;99.90;;;;;;5071661;28;20198;-80
2021/01/18 02:01:29;;;;;;;23.27;11.70;;;2.50;99.90;;;;;;5067446;28;20194;-80
2021/01/18 02:03:58;;;;;;;26.03;11.70;;;2.50;99.90;;;;;;5063578;28;20203;-80
2021/01/18 02:06:25;;;;;;;23.60;10.50;;;2.50;99.90;;;;;;5058089;28;20234;-80
2021/01/18 02:08:52;;;;;;;22.03;11.13;;;2.60;99.90;;;;;;5071311;28;20202;-80
2021/01/18 02:11:19;;;;;;;24.40;11.60;;;2.60;99.90;;;;;;5068630;28;20272;-80
2021/01/18 02:14:14;;;;;;;26.20;12.03;;;2.60;99.90;;;;;;5065889;28;20199;-80
2021/01/18 02:16:49;;;;;;;24.50;11.97;;;2.70;99.90;;;;;;5036736;28;20648;-80
2021/01/18 02:20:01;;;;;;;26.33;12.37;;;2.70;99.90;;;;;;5046437;28;20922;-80
2021/01/18 02:22:56;;;;;;;27.83;12.83;;;2.80;99.90;;;;;;5052831;28;20217;-80
2021/01/18 02:25:33;;;;;;;28.63;12.70;;;2.80;99.90;;;;;;5061823;28;20221;-80
2021/01/18 02:28:30;;;;;;;29.60;12.37;;;2.80;99.90;;;;;;5050365;28;20212;-80
2021/01/18 02:31:29;;;;;;;30.83;14.07;;;2.90;99.90;;;;;;5069368;28;20225;-79
2021/01/18 02:34:40;;;;;;;32.03;14.97;;;2.90;99.90;;;;;;5068288;28;20601;-78
2021/01/18 02:37:22;;;;;;;32.20;14.20;;;2.90;99.90;;;;;;5064940;28;20208;-78
2021/01/18 02:39:57;;;;;;;36.33;15.03;;;2.90;99.90;;;;;;5063661;28;20199;-78
2021/01/18 02:42:28;;;;;;;33.27;13.97;;;2.90;99.90;;;;;;5063371;28;20538;-78
2021/01/18 02:44:57;;;;;;;34.10;14.97;;;2.90;99.90;;;;;;5065403;28;20210;-78
2021/01/18 02:47:25;;;;;;;39.33;15.37;;;2.90;99.90;;;;;;5061483;28;20252;-78
2021/01/18 02:49:52;;;;;;;34.07;14.53;;;2.90;99.90;;;;;;5068499;28;20229;-79
2021/01/18 02:52:20;;;;;;;32.40;13.63;;;2.90;99.90;;;;;;5066934;28;20213;-80
2021/01/18 02:54:46;;;;;;;29.93;14.10;;;2.90;99.90;;;;;;5067749;28;20202;-78
2021/01/18 02:57:14;;;;;;;30.33;14.17;;;2.90;99.90;;;;;;5064254;28;20207;-79
2021/01/18 02:59:41;;;;;;;29.27;14.87;;;3.00;99.90;;;;;;5065158;28;20210;-79
2021/01/18 03:02:28;;;;;;;30.43;14.63;;;2.90;99.90;;;;;;5067218;28;20430;-79
2021/01/18 03:05:15;;;;;;;27.90;13.83;;;2.90;99.90;;;;;;5063908;28;20202;-79
2021/01/18 03:07:55;;;;;;;32.73;14.17;;;3.00;99.90;;;;;;5067571;28;20213;-78
2021/01/18 03:10:27;;;;;;;30.93;13.03;;;2.90;99.90;;;;;;5042871;28;20225;-78
2021/01/18 03:13:00;;;;;;;32.53;13.33;;;3.00;99.90;;;;;;5061845;28;20613;-78
2021/01/18 03:15:31;;;;;;;29.57;13.73;;;3.00;99.90;;;;;;5052640;28;20201;-78
2021/01/18 03:18:01;;;;;;;30.83;13.27;;;3.00;99.90;;;;;;5066256;28;20206;-78
2021/01/18 03:20:28;;;;;;;29.73;14.07;;;2.90;99.90;;;;;;5065185;28;20202;-78
2021/01/18 03:23:01;;;;;;;26.93;13.00;;;2.90;99.90;;;;;;5066520;28;20221;-78
2021/01/18 03:25:28;;;;;;;29.60;12.80;;;2.90;99.90;;;;;;5058983;28;20210;-78
2021/01/18 03:27:57;;;;;;;30.17;13.83;;;3.00;99.90;;;;;;5067471;28;20225;-77
2021/01/18 03:30:25;;;;;;;30.80;13.50;;;3.00;99.90;;;;;;5062194;28;20226;-77
2021/01/18 03:32:53;;;;;;;31.30;13.00;;;3.00;99.90;;;;;;5057691;28;20614;-77
2021/01/18 03:35:20;;;;;;;32.13;12.70;;;3.00;99.90;;;;;;5056115;28;20207;-78
2021/01/18 03:37:52;;;;;;;26.17;12.30;;;3.00;99.90;;;;;;5061084;28;20203;-78
2021/01/18 03:40:20;;;;;;;25.30;12.13;;;3.10;99.90;;;;;;5068149;28;20668;-78
2021/01/18 03:42:53;;;;;;;28.87;12.47;;;3.00;99.90;;;;;;5067680;28;20315;-77
2021/01/18 03:45:19;;;;;;;31.43;12.60;;;3.10;99.90;;;;;;5056210;28;20252;-77
2021/01/18 03:47:46;;;;;;;34.70;12.67;;;3.10;99.90;;;;;;5062313;28;20209;-78
2021/01/18 03:50:13;;;;;;;30.90;12.17;;;3.10;99.90;;;;;;5065436;28;20222;-78
2021/01/18 03:52:39;;;;;;;22.30;9.73;;;3.10;99.90;;;;;;5064174;28;20210;-78
2021/01/18 03:55:08;;;;;;;23.80;11.53;;;3.10;99.90;;;;;;5059343;28;20236;-78
2021/01/18 03:57:36;;;;;;;22.27;10.63;;;3.10;99.90;;;;;;5064885;28;20198;-78
2021/01/18 04:00:04;;;;;;;28.27;10.47;;;3.00;99.90;;;;;;5062298;28;20206;-78
2021/01/18 04:02:30;;;;;;;21.77;8.80;;;3.10;99.90;;;;;;5058399;28;20195;-78
2021/01/18 04:04:57;;;;;;;21.83;9.13;;;3.10;99.90;;;;;;5062862;28;20207;-78
2021/01/18 04:07:23;;;;;;;20.00;8.03;;;3.20;99.90;;;;;;5061976;28;20199;-78
2021/01/18 04:09:49;;;;;;;20.13;7.47;;;3.20;99.90;;;;;;5062216;28;20210;-79
2021/01/18 04:12:16;;;;;;;22.07;7.27;;;3.20;99.90;;;;;;5065861;28;20623;-78
2021/01/18 04:14:44;;;;;;;21.23;7.63;;;3.20;99.90;;;;;;5071154;28;20202;-78
2021/01/18 04:17:10;;;;;;;20.77;7.13;;;3.20;99.90;;;;;;5064549;28;20290;-78
2021/01/18 04:19:36;;;;;;;19.23;7.17;;;3.20;99.90;;;;;;5066707;28;20272;-79
2021/01/18 04:22:05;;;;;;;19.73;7.00;;;3.20;99.90;;;;;;5057973;28;20646;-78
2021/01/18 04:24:32;;;;;;;19.23;7.73;;;3.30;99.90;;;;;;5066032;28;20205;-78
2021/01/18 04:26:58;;;;;;;18.13;6.53;;;3.30;99.90;;;;;;5069226;28;20206;-78
2021/01/18 04:29:25;;;;;;;17.13;6.73;;;3.30;99.90;;;;;;5062693;28;20256;-79
2021/01/18 04:31:52;;;;;;;18.10;6.40;;;3.30;99.90;;;;;;5059602;28;20214;-78
2021/01/18 04:34:18;;;;;;;20.17;6.10;;;3.20;99.90;;;;;;5064178;28;20207;-79
2021/01/18 04:36:45;;;;;;;13.10;5.83;;;3.20;99.90;;;;;;5056616;28;20214;-78
2021/01/18 04:39:11;;;;;;;19.30;6.10;;;3.20;99.90;;;;;;5066387;28;20224;-79
2021/01/18 04:41:41;;;;;;;20.67;6.03;;;3.10;99.90;;;;;;5064731;28;20198;-78
2021/01/18 04:44:09;;;;;;;19.20;6.30;;;3.00;99.90;;;;;;5070290;28;20202;-79
2021/01/18 04:46:39;;;;;;;17.63;6.40;;;3.00;99.90;;;;;;5069538;28;20210;-79
2021/01/18 04:49:07;;;;;;;24.23;8.13;;;2.90;99.90;;;;;;5067076;28;20206;-78
2021/01/18 04:51:41;;;;;;;28.30;9.83;;;3.00;99.90;;;;;;5064838;28;20217;-78
2021/01/18 04:54:13;;;;;;;23.77;9.90;;;2.90;99.90;;;;;;5061504;28;20203;-78
2021/01/18 04:57:12;;;;;;;30.33;11.33;;;2.90;99.90;;;;;;5066292;28;20207;-78
2021/01/18 04:59:41;;;;;;;27.70;10.37;;;2.90;99.90;;;;;;5062266;28;20203;-78
2021/01/18 05:02:09;;;;;;;24.77;9.60;;;2.80;99.90;;;;;;5065035;28;20206;-79
2021/01/18 05:04:40;;;;;;;22.40;9.67;;;2.80;99.90;;;;;;5066021;28;20677;-78
2021/01/18 05:07:50;;;;;;;22.33;9.33;;;2.60;99.90;;;;;;5065780;28;20210;-78
2021/01/18 05:10:25;;;;;;;24.37;10.17;;;2.60;99.90;;;;;;5057652;28;20222;-79
2021/01/18 05:13:00;;;;;;;24.70;9.87;;;2.50;99.90;;;;;;5064022;28;20198;-79
2021/01/18 05:15:27;;;;;;;27.67;9.17;;;2.50;99.90;;;;;;5062013;28;20202;-79
2021/01/18 05:18:05;;;;;;;23.53;8.93;;;2.50;99.90;;;;;;5060231;28;20198;-78
2021/01/18 05:20:33;;;;;;;27.83;8.60;;;2.50;99.90;;;;;;5060967;28;20653;-79
2021/01/18 05:23:07;;;;;;;23.60;9.00;;;2.50;99.90;;;;;;5067163;28;20206;-79
2021/01/18 05:25:34;;;;;;;20.93;8.30;;;2.50;99.90;;;;;;5063623;28;20202;-79
2021/01/18 05:28:02;;;;;;;25.10;9.07;;;2.50;99.90;;;;;;5061774;28;20221;-79
2021/01/18 05:30:30;;;;;;;22.90;8.93;;;2.50;99.90;;;;;;5073139;28;20222;-79
2021/01/18 05:33:05;;;;;;;24.87;8.80;;;2.50;99.90;;;;;;5072861;28;20241;-79
2021/01/18 05:35:33;;;;;;;21.43;8.37;;;2.40;99.90;;;;;;5058801;28;20260;-79
2021/01/18 05:38:06;;;;;;;23.30;8.77;;;2.40;99.90;;;;;;5072472;28;20202;-79
2021/01/18 05:40:41;;;;;;;23.77;9.07;;;2.40;99.90;;;;;;5072674;28;20597;-79
2021/01/18 05:43:08;;;;;;;20.17;8.40;;;2.40;99.90;;;;;;5069582;28;20209;-78
2021/01/18 05:45:36;;;;;;;19.40;8.03;;;2.30;99.90;;;;;;5058544;28;20214;-79
2021/01/18 05:48:04;;;;;;;21.77;8.43;;;2.30;99.90;;;;;;5070499;28;20236;-78
2021/01/18 05:50:32;;;;;;;17.77;7.73;;;2.30;99.90;;;;;;5072320;28;20267;-78
2021/01/18 05:52:59;;;;;;;21.20;8.17;;;2.30;99.90;;;;;;5055120;28;20657;-78
2021/01/18 05:55:27;;;;;;;20.47;8.17;;;2.30;99.90;;;;;;5061093;28;20209;-79
2021/01/18 05:57:55;;;;;;;22.00;8.93;;;2.30;99.90;;;;;;5055471;28;20206;-78
2021/01/18 06:00:35;;;;;;;23.77;8.93;;;2.40;99.90;;;;;;5065012;28;20203;-79
2021/01/18 06:03:06;;;;;;;23.00;7.90;;;2.40;99.90;;;;;;5057513;28;20207;-78
2021/01/18 06:05:35;;;;;;;24.67;8.03;;;2.50;99.90;;;;;;5065898;28;20202;-79
2021/01/18 06:08:10;;;;;;;26.83;8.80;;;2.50;99.90;;;;;;5055027;28;20251;-79
2021/01/18 06:10:36;;;;;;;21.73;8.40;;;2.70;99.90;;;;;;5064981;28;20222;-79
2021/01/18 06:13:02;;;;;;;23.07;8.83;;;2.70;99.90;;;;;;5062643;28;20248;-79
2021/01/18 06:15:29;;;;;;;19.63;7.67;;;2.70;99.90;;;;;;5070352;28;20210;-79
2021/01/18 06:17:57;;;;;;;20.67;7.93;;;2.60;99.90;;;;;;5060563;28;20207;-78
2021/01/18 06:20:27;;;;;;;25.00;9.70;;;2.60;99.90;;;;;;5054347;28;20194;-78
2021/01/18 06:22:55;;;;;;;23.43;7.73;;;2.60;99.90;;;;;;5061907;28;20255;-78
2021/01/18 06:25:25;;;;;;;18.97;6.97;;;2.60;99.90;;;;;;5057683;28;20287;-78
2021/01/18 06:27:52;;;;;;;22.47;7.40;;;2.60;99.90;;;;;;5067116;28;20553;-79
2021/01/18 06:30:25;;;;;;;18.80;7.43;;;2.60;99.90;;;;;;5071196;28;20275;-79
2021/01/18 06:32:56;;;;;;;14.70;6.87;;;2.70;99.90;;;;;;5071622;28;20206;-79
2021/01/18 06:35:24;;;;;;;19.03;7.37;;;2.80;99.90;;;;;;5057488;28;20574;-79
2021/01/18 06:38:01;;;;;;;17.53;6.73;;;2.80;99.90;;;;;;5064568;28;20249;-79
2021/01/18 06:40:33;;;;;;;21.30;7.20;;;2.80;99.90;;;;;;5064870;28;20226;-79
2021/01/18 06:43:00;;;;;;;19.43;7.40;;;2.80;99.90;;;;;;5061545;28;20670;-79
2021/01/18 06:45:32;;;;;;;17.77;7.10;;;2.90;99.90;;;;;;5068717;28;20202;-79
2021/01/18 06:47:59;;;;;;;23.60;8.43;;;2.80;99.90;;;;;;5060575;28;20634;-79
2021/01/18 06:50:30;;;;;;;18.43;7.07;;;2.80;99.90;;;;;;5063571;28;20225;-79
2021/01/18 06:53:07;;;;;;;19.67;8.10;;;2.70;99.90;;;;;;5053522;28;20206;-79
2021/01/18 06:55:38;;;;;;;19.93;7.03;;;2.70;99.90;;;;;;5060379;28;20244;-79
2021/01/18 06:58:24;;;;;;;17.43;7.00;;;2.70;99.90;;;;;;5053203;28;20593;-80
2021/01/18 07:00:58;;;;;;;20.97;7.90;;;2.70;99.90;;;;;;5061767;28;20583;-81
2021/01/18 07:03:39;;;;;;;22.07;7.30;;;2.70;99.90;;;;;;5044481;28;20199;-79
2021/01/18 07:06:31;;;;;;;21.23;7.53;;;2.70;99.90;;;;;;5061893;28;20214;-79
2021/01/18 07:09:00;;;;;;;16.30;6.60;;;2.90;99.90;;;;;;5059173;28;20202;-79
2021/01/18 07:11:27;;;;;;;20.43;7.83;;;2.90;99.90;;;;;;5069182;28;20218;-79
2021/01/18 07:13:54;;;;;;;15.53;7.00;;;3.00;99.90;;;;;;5064706;28;20199;-79
2021/01/18 07:16:22;;;;;;;16.30;6.60;;;2.90;99.90;;;;;;5065522;28;20557;-79
2021/01/18 07:18:53;;;;;;;14.97;6.47;;;2.90;99.90;;;;;;5051885;28;20207;-79
2021/01/18 07:21:20;;;;;;;20.00;7.20;;;2.90;99.90;;;;;;5050936;28;20634;-79
2021/01/18 07:23:58;;;;;;;18.33;7.37;;;2.90;99.90;;;;;;5064403;28;20209;-79
2021/01/18 07:26:56;;;;;;;14.40;6.60;;;2.80;99.90;;;;;;5069655;28;20544;-79
2021/01/18 07:29:25;;;;;;;18.00;6.97;;;2.80;99.90;;;;;;5058063;28;20214;-79
2021/01/18 07:31:53;;;;;;;15.77;7.10;;;2.80;99.90;;;;;;5057824;28;20218;-78
2021/01/18 07:34:21;;;;;;;15.70;6.00;;;2.80;99.90;;;;;;5066360;28;20688;-79
2021/01/18 07:36:49;;;;;;;16.93;6.40;;;2.80;99.90;;;;;;5060944;28;20200;-78
2021/01/18 07:39:31;;;;;;;15.53;6.07;;;2.90;99.90;;;;;;5067708;28;20609;-78
2021/01/18 07:41:59;;;;;;;17.53;7.47;;;2.90;99.90;;;;;;5067532;28;20609;-78
2021/01/18 07:44:34;;;;;;;25.70;9.57;;;2.90;99.90;;;;;;5069391;28;20210;-79
2021/01/18 07:47:01;;;;;;;18.37;7.70;;;2.90;99.90;;;;;;5057041;28;20204;-79
2021/01/18 07:49:43;;;;;;;24.20;9.67;;;3.00;99.90;;;;;;5067034;28;20564;-79
2021/01/18 07:52:24;;;;;;;49.93;19.03;;;3.00;99.90;;;;;;5065060;28;20229;-79
2021/01/18 07:54:52;;;;;;;20.70;9.07;;;3.00;99.90;;;;;;5048234;28;20220;-79
2021/01/18 07:57:36;;;;;;;14.33;6.73;;;3.10;99.90;;;;;;5069153;28;20225;-79
2021/01/18 08:00:27;;;;;;;17.47;7.40;;;3.20;99.90;;;;;;5066238;28;20684;-79
2021/01/18 08:03:12;;;;;;;23.03;10.53;;;3.20;99.90;;;;;;5058515;28;20211;-79
2021/01/18 08:05:39;;;;;;;18.63;8.13;;;3.30;99.90;;;;;;5055865;28;20199;-79
2021/01/18 08:08:07;;;;;;;18.07;7.07;;;3.30;99.90;;;;;;5062489;28;20199;-78
2021/01/18 08:10:55;;;;;;;21.27;8.73;;;3.40;99.90;;;;;;5058810;28;20629;-79
2021/01/18 08:13:55;;;;;;;13.93;7.03;;;3.40;99.90;;;;;;5065892;28;20203;-79
2021/01/18 08:16:30;;;;;;;12.60;6.17;;;3.50;99.90;;;;;;5064355;28;20326;-79
2021/01/18 08:19:07;;;;;;;17.43;7.33;;;3.40;99.90;;;;;;5061567;28;20599;-78
2021/01/18 08:21:59;;;;;;;15.93;6.50;;;3.50;99.90;;;;;;5068410;28;20194;-80
2021/01/18 08:24:58;;;;;;;19.17;8.43;;;3.50;99.90;;;;;;5066487;28;20706;-78
2021/01/18 08:27:43;;;;;;;16.83;7.50;;;3.40;99.90;;;;;;4992152;28;20568;-78
2021/01/18 08:30:34;;;;;;;16.97;8.30;;;3.40;99.90;;;;;;4991013;28;20217;-79
2021/01/18 08:33:17;;;;;;;18.97;10.37;;;3.50;99.90;;;;;;5037283;28;20195;-79
2021/01/18 08:35:50;;;;;;;14.30;7.80;;;3.50;99.90;;;;;;5068349;28;20203;-79
2021/01/18 08:38:28;;;;;;;16.23;6.90;;;3.50;99.90;;;;;;5057548;28;20202;-79
2021/01/18 08:41:03;;;;;;;14.23;7.93;;;3.40;99.90;;;;;;5068045;28;20664;-79
2021/01/18 08:43:45;;;;;;;14.90;7.47;;;3.50;99.90;;;;;;5060980;28;20201;-78
2021/01/18 08:46:30;;;;;;;17.00;7.17;;;4.00;99.90;;;;;;5056909;28;20298;-78
2021/01/18 08:49:21;;;;;;;18.43;7.20;;;4.10;99.90;;;;;;5064547;28;20564;-78
2021/01/18 08:51:49;;;;;;;14.67;7.37;;;4.20;99.90;;;;;;5065819;28;20222;-78
2021/01/18 08:54:28;;;;;;;21.13;9.13;;;4.30;99.90;;;;;;5060849;28;20206;-78
2021/01/18 08:57:23;;;;;;;15.70;9.23;;;4.20;99.90;;;;;;5062443;28;20199;-78
2021/01/18 09:00:04;;;;;;;15.10;8.27;;;4.10;99.90;;;;;;5061987;28;20238;-79
2021/01/18 09:02:31;;;;;;;18.17;7.97;;;4.10;99.90;;;;;;5063874;28;20210;-78
2021/01/18 09:05:12;;;;;;;21.53;8.37;;;4.20;99.90;;;;;;5063052;28;20602;-79
2021/01/18 09:07:40;;;;;;;17.63;8.63;;;4.20;99.90;;;;;;5063955;28;20556;-79
2021/01/18 09:10:12;;;;;;;17.33;7.93;;;4.20;99.90;;;;;;5064499;28;20199;-78
2021/01/18 09:12:39;;;;;;;19.13;8.73;;;4.20;99.90;;;;;;5070057;28;20778;-79
2021/01/18 09:15:08;;;;;;;18.63;9.13;;;4.20;99.90;;;;;;5062408;28;20212;-79
2021/01/18 09:17:34;;;;;;;18.63;9.60;;;4.30;99.90;;;;;;5066485;28;20567;-78
2021/01/18 09:20:03;;;;;;;17.77;8.73;;;4.30;99.90;;;;;;5061888;28;20292;-78
2021/01/18 09:22:31;;;;;;;18.30;9.93;;;4.30;99.90;;;;;;5065293;28;20244;-78
2021/01/18 09:24:58;;;;;;;25.70;11.33;;;4.40;99.90;;;;;;5067984;28;20218;-78
2021/01/18 09:27:25;;;;;;;20.80;10.03;;;4.60;99.90;;;;;;5062613;28;20617;-78
2021/01/18 09:29:59;;;;;;;20.90;10.40;;;4.70;99.90;;;;;;5071589;28;20210;-78
2021/01/18 09:32:27;;;;;;;19.37;10.27;;;4.80;99.90;;;;;;5068327;28;20222;-78
2021/01/18 09:35:04;;;;;;;22.20;9.80;;;4.60;99.90;;;;;;5064602;28;20206;-79
2021/01/18 09:37:30;;;;;;;18.27;9.70;;;4.60;99.90;;;;;;5060382;28;20777;-78
2021/01/18 09:39:57;;;;;;;20.10;9.20;;;4.60;99.90;;;;;;5054658;28;20205;-78
2021/01/18 09:42:24;;;;;;;23.33;10.53;;;4.50;99.90;;;;;;5067331;28;20207;-78
2021/01/18 09:44:52;;;;;;;20.27;9.13;;;4.50;99.90;;;;;;5066398;28;20206;-78
2021/01/18 09:47:19;;;;;;;18.67;9.47;;;4.60;99.90;;;;;;5061870;28;20207;-78
2021/01/18 09:49:46;;;;;;;24.33;10.10;;;4.60;99.90;;;;;;5068069;28;20615;-78
2021/01/18 09:52:14;;;;;;;22.53;9.80;;;4.60;99.90;;;;;;5063011;28;20229;-78
2021/01/18 09:54:40;;;;;;;19.87;10.10;;;4.70;99.90;;;;;;5062519;28;20207;-78
2021/01/18 09:57:14;;;;;;;27.27;12.17;;;4.80;99.90;;;;;;5068083;28;20206;-78
2021/01/18 09:59:43;;;;;;;21.97;9.93;;;4.80;99.90;;;;;;5062648;28;20207;-78
2021/01/18 10:02:12;;;;;;;21.70;10.50;;;4.80;99.90;;;;;;5068154;28;20213;-78
2021/01/18 10:04:40;;;;;;;22.87;11.10;;;4.80;99.90;;;;;;5058113;28;20213;-78
2021/01/18 10:07:10;;;;;;;20.60;10.60;;;4.90;99.90;;;;;;5059127;28;20202;-78
2021/01/18 10:09:37;;;;;;;26.57;11.27;;;4.90;99.90;;;;;;5057123;28;20210;-79
2021/01/18 10:12:04;;;;;;;26.03;11.33;;;4.90;99.90;;;;;;5060657;28;20207;-79
2021/01/18 10:14:31;;;;;;;30.67;12.87;;;4.90;99.90;;;;;;5070343;28;20206;-79
2021/01/18 10:17:00;;;;;;;27.23;12.77;;;5.00;99.90;;;;;;5063106;28;20202;-79
2021/01/18 10:19:26;;;;;;;30.87;14.70;;;5.00;99.90;;;;;;5066754;28;20702;-78
2021/01/18 10:21:54;;;;;;;25.73;12.13;;;5.10;99.90;;;;;;5058033;28;20206;-76
2021/01/18 10:24:28;;;;;;;26.63;13.17;;;5.20;99.90;;;;;;5065921;28;20293;-76
2021/01/18 10:27:02;;;;;;;26.37;12.93;;;5.20;99.90;;;;;;5062567;28;20198;-76
2021/01/18 10:29:29;;;;;;;35.57;15.17;;;5.20;99.90;;;;;;5064751;28;20672;-76
2021/01/18 10:31:56;;;;;;;30.53;13.97;;;5.20;99.90;;;;;;5065128;28;20221;-77
2021/01/18 10:34:28;;;;;;;26.10;12.70;;;5.20;99.90;;;;;;5066857;28;20672;-77
2021/01/18 10:36:56;;;;;;;28.57;14.10;;;5.30;99.90;;;;;;5070867;28;20198;-77
2021/01/18 10:39:31;;;;;;;27.57;13.50;;;5.30;99.90;;;;;;5067398;28;20265;-77
2021/01/18 10:42:05;;;;;;;26.63;13.27;;;5.30;99.90;;;;;;5059343;28;20194;-76
2021/01/18 10:44:33;;;;;;;30.77;13.40;;;5.30;99.90;;;;;;5065169;28;20205;-76
2021/01/18 10:47:00;;;;;;;27.80;13.83;;;5.30;99.90;;;;;;5065608;28;20211;-77
2021/01/18 10:49:27;;;;;;;26.43;13.73;;;5.30;99.90;;;;;;5056122;28;20199;-76
2021/01/18 10:52:06;;;;;;;32.63;15.23;;;5.30;99.90;;;;;;5063993;28;20236;-76
2021/01/18 10:54:34;;;;;;;29.93;14.43;;;5.30;99.90;;;;;;5062238;28;20231;-77
2021/01/18 10:57:02;;;;;;;26.77;13.70;;;5.30;99.90;;;;;;5051352;28;20549;-76
2021/01/18 10:59:29;;;;;;;30.13;15.77;;;5.30;99.90;;;;;;5058354;28;20207;-76
2021/01/18 11:02:06;;;;;;;33.07;16.10;;;5.30;99.90;;;;;;5067958;28;20559;-76
2021/01/18 11:04:44;;;;;;;34.53;17.67;;;5.30;99.90;;;;;;5068129;28;20248;-77
2021/01/18 11:07:12;;;;;;;36.67;18.93;;;5.30;99.90;;;;;;5066145;28;20202;-77
2021/01/18 11:09:40;;;;;;;35.67;17.37;;;5.30;99.90;;;;;;5058744;28;20198;-77
2021/01/18 11:12:08;;;;;;;39.87;17.77;;;5.30;99.90;;;;;;5061097;28;20257;-77
2021/01/18 11:14:36;;;;;;;40.30;18.57;;;5.30;99.90;;;;;;5063903;28;20276;-77
2021/01/18 11:17:04;;;;;;;37.33;19.60;;;5.30;99.90;;;;;;5064733;28;20211;-77
2021/01/18 11:19:30;;;;;;;39.33;19.23;;;5.30;99.90;;;;;;5063384;28;20218;-77
2021/01/18 11:21:57;;;;;;;41.73;20.60;;;5.30;99.90;;;;;;5062069;28;20195;-77
2021/01/18 11:24:23;;;;;;;40.63;21.30;;;5.40;99.90;;;;;;5061220;28;20621;-77
2021/01/18 11:26:53;;;;;;;45.87;22.23;;;5.40;99.90;;;;;;5062777;28;20199;-77
2021/01/18 11:29:20;;;;;;;44.27;21.77;;;5.50;99.90;;;;;;5069289;28;20201;-77
2021/01/18 11:31:48;;;;;;;48.93;22.73;;;5.50;99.90;;;;;;5060047;28;20222;-77
2021/01/18 11:34:14;;;;;;;44.60;22.67;;;5.50;99.90;;;;;;5064867;28;20207;-76
2021/01/18 11:36:41;;;;;;;45.63;23.67;;;5.50;99.90;;;;;;5061885;28;20240;-77
2021/01/18 11:39:09;;;;;;;49.30;23.27;;;5.50;99.90;;;;;;5063593;28;20209;-79
2021/01/18 11:41:35;;;;;;;49.60;24.17;;;5.50;99.90;;;;;;5061498;28;20206;-78
2021/01/18 11:44:04;;;;;;;47.77;22.33;;;5.50;99.90;;;;;;5057214;28;20663;-79
2021/01/18 11:46:31;;;;;;;48.10;24.63;;;5.40;99.90;;;;;;5066375;28;20271;-79
2021/01/18 11:48:58;;;;;;;48.93;25.20;;;5.40;99.90;;;;;;5058778;28;20203;-79
2021/01/18 11:51:25;;;;;;;48.50;23.63;;;5.50;99.90;;;;;;5063686;28;20291;-79
2021/01/18 11:53:51;;;;;;;49.93;25.57;;;5.50;99.90;;;;;;5057249;28;20657;-77
2021/01/18 11:56:17;;;;;;;48.73;25.07;;;5.50;99.90;;;;;;5057806;28;20207;-78
2021/01/18 11:58:44;;;;;;;51.07;23.73;;;5.50;99.90;;;;;;5050798;28;20707;-77
2021/01/18 12:01:11;;;;;;;47.00;24.00;;;5.50;99.90;;;;;;5057310;28;20211;-77
2021/01/18 12:03:38;;;;;;;43.77;21.73;;;5.50;99.90;;;;;;5067650;28;20203;-78
2021/01/18 12:06:04;;;;;;;46.63;21.63;;;5.50;99.90;;;;;;5060820;28;20206;-78
2021/01/18 12:08:31;;;;;;;40.37;21.80;;;5.50;99.90;;;;;;5064851;28;20202;-78
2021/01/18 12:10:57;;;;;;;42.13;20.83;;;5.60;99.90;;;;;;5053904;28;20222;-77
2021/01/18 12:13:24;;;;;;;37.87;19.67;;;5.50;99.90;;;;;;5055635;28;20587;-78
2021/01/18 12:15:50;;;;;;;38.07;20.57;;;5.50;99.90;;;;;;5059664;28;20198;-77
2021/01/18 12:18:17;;;;;;;41.53;20.80;;;5.50;99.90;;;;;;5055590;28;20214;-77
2021/01/18 12:20:44;;;;;;;40.73;19.83;;;5.50;99.90;;;;;;5051141;28;20657;-78
2021/01/18 12:23:10;;;;;;;41.57;19.57;;;5.50;99.90;;;;;;5056688;28;20252;-77
2021/01/18 12:25:37;;;;;;;37.53;19.27;;;5.50;99.90;;;;;;5062970;28;20663;-77
2021/01/18 12:28:03;;;;;;;39.67;19.07;;;5.50;99.90;;;;;;5073066;28;20266;-78
2021/01/18 12:30:30;;;;;;;38.87;19.90;;;5.50;99.90;;;;;;5064603;28;20211;-77
2021/01/18 12:32:56;;;;;;;41.63;20.20;;;5.50;99.90;;;;;;5055507;28;20218;-77
2021/01/18 12:35:24;;;;;;;39.60;20.20;;;5.50;99.90;;;;;;5066785;28;20210;-77
2021/01/18 12:37:50;;;;;;;41.13;20.33;;;5.50;99.90;;;;;;5059509;28;20596;-77
2021/01/18 12:40:17;;;;;;;37.13;19.27;;;5.50;99.90;;;;;;5059427;28;20264;-77
2021/01/18 12:42:44;;;;;;;38.40;19.70;;;5.50;99.90;;;;;;5059876;28;20216;-77
2021/01/18 12:45:13;;;;;;;40.97;20.70;;;5.50;99.90;;;;;;5067227;28;20199;-77
2021/01/18 12:47:40;;;;;;;40.33;20.20;;;5.50;99.90;;;;;;5069153;28;20235;-78
2021/01/18 12:50:09;;;;;;;41.60;19.70;;;5.60;99.90;;;;;;5054675;28;20214;-77
2021/01/18 12:52:39;;;;;;;37.90;20.13;;;5.60;99.90;;;;;;5060520;28;20296;-77
2021/01/18 12:55:06;;;;;;;41.17;21.20;;;5.50;99.90;;;;;;5059817;28;20205;-77
2021/01/18 12:57:32;;;;;;;39.50;21.63;;;5.50;99.90;;;;;;5059720;28;20668;-77
2021/01/18 12:59:58;;;;;;;39.47;20.97;;;5.50;99.90;;;;;;5061141;28;20199;-78